sensor_id;sensor_type;location;lat;lon;timestamp;noise_LAeq;noise_LA_min;noise_LA_max;noise_LA01;noise_LA95
57439;Laerm;43282;47.188;8.896;2023-05-10T00:02:12;54.86;47.02;76.06;;
57439;Laerm;43282;47.188;8.896;2023-05-10T00:04:38;52.60;47.02;68.74;;
57439;Laerm;43282;47.188;8.896;2023-05-10T00:07:03;51.50;44.07;71.33;;
57439;Laerm;43282;47.188;8.896;2023-05-10T00:09:28;46.21;42.71;68.52;;
57439;Laerm;43282;47.188;8.896;2023-05-10T00:11:53;45.65;43.09;56.28;;
57439;Laerm;43282;47.188;8.896;2023-05-10T00:14:19;45.78;43.04;58.68;;
57439;Laerm;43282;47.188;8.896;2023-05-10T00:16:44;48.66;43.58;67.09;;
57439;Laerm;43282;47.188;8.896;2023-05-10T00:19:09;46.72;43.09;60.04;;
57439;Laerm;43282;47.188;8.896;2023-05-10T00:21:35;48.80;44.76;57.92;;
57439;Laerm;43282;47.188;8.896;2023-05-10T00:24:00;49.06;45.33;58.74;;
57439;Laerm;43282;47.188;8.896;2023-05-10T00:26:25;51.95;46.28;68.03;;
57439;Laerm;43282;47.188;8.896;2023-05-10T00:28:51;50.40;47.06;58.35;;
57439;Laerm;43282;47.188;8.896;2023-05-10T00:31:16;52.71;45.97;68.51;;
57439;Laerm;43282;47.188;8.896;2023-05-10T00:33:41;50.52;46.55;58.95;;
57439;Laerm;43282;47.188;8.896;2023-05-10T00:36:07;49.17;45.69;59.88;;
57439;Laerm;43282;47.188;8.896;2023-05-10T00:38:33;47.44;44.23;56.44;;
57439;Laerm;43282;47.188;8.896;2023-05-10T00:40:58;47.12;44.03;54.56;;
57439;Laerm;43282;47.188;8.896;2023-05-10T00:43:23;48.78;44.73;63.62;;
57439;Laerm;43282;47.188;8.896;2023-05-10T00:45:48;47.29;43.44;63.77;;
57439;Laerm;43282;47.188;8.896;2023-05-10T00:48:14;50.54;46.55;59.41;;
57439;Laerm;43282;47.188;8.896;2023-05-10T00:50:39;50.06;46.55;59.96;;
57439;Laerm;43282;47.188;8.896;2023-05-10T00:53:05;50.60;47.57;62.70;;
57439;Laerm;43282;47.188;8.896;2023-05-10T00:55:30;51.24;48.01;66.34;;
57439;Laerm;43282;47.188;8.896;2023-05-10T00:58:16;50.99;45.99;58.76;;
57439;Laerm;43282;47.188;8.896;2023-05-10T01:00:42;48.51;45.45;59.37;;
57439;Laerm;43282;47.188;8.896;2023-05-10T01:03:09;51.63;43.90;69.39;;
57439;Laerm;43282;47.188;8.896;2023-05-10T01:05:34;45.67;42.93;61.53;;
57439;Laerm;43282;47.188;8.896;2023-05-10T01:08:00;45.39;42.98;55.63;;
57439;Laerm;43282;47.188;8.896;2023-05-10T01:10:25;44.35;41.53;56.09;;
57439;Laerm;43282;47.188;8.896;2023-05-10T01:12:50;45.78;42.29;58.42;;
57439;Laerm;43282;47.188;8.896;2023-05-10T01:15:16;44.94;40.71;59.27;;
57439;Laerm;43282;47.188;8.896;2023-05-10T01:17:43;43.01;39.46;54.77;;
57439;Laerm;43282;47.188;8.896;2023-05-10T01:20:09;44.28;40.13;52.34;;
57439;Laerm;43282;47.188;8.896;2023-05-10T01:40:39;46.94;42.82;63.58;;
57439;Laerm;43282;47.188;8.896;2023-05-10T01:43:08;50.06;42.88;64.82;;
57439;Laerm;43282;47.188;8.896;2023-05-10T01:48:10;45.17;41.68;58.96;;
57439;Laerm;43282;47.188;8.896;2023-05-10T01:50:37;47.06;41.82;60.76;;
57439;Laerm;43282;47.188;8.896;2023-05-10T01:53:05;45.68;42.82;56.62;;
57439;Laerm;43282;47.188;8.896;2023-05-10T01:55:32;46.56;42.35;57.13;;
57439;Laerm;43282;47.188;8.896;2023-05-10T01:58:05;44.74;41.19;57.13;;
57439;Laerm;43282;47.188;8.896;2023-05-10T02:00:30;43.88;41.38;55.52;;
57439;Laerm;43282;47.188;8.896;2023-05-10T02:02:57;53.33;41.38;72.69;;
57439;Laerm;43282;47.188;8.896;2023-05-10T02:05:22;42.93;39.46;55.49;;
57439;Laerm;43282;47.188;8.896;2023-05-10T02:07:49;50.71;40.03;70.89;;
57439;Laerm;43282;47.188;8.896;2023-05-10T02:10:16;45.53;40.13;56.71;;
57439;Laerm;43282;47.188;8.896;2023-05-10T02:12:43;44.98;39.08;54.01;;
57439;Laerm;43282;47.188;8.896;2023-05-10T02:15:10;49.44;40.53;63.96;;
57439;Laerm;43282;47.188;8.896;2023-05-10T02:17:37;48.96;40.71;64.95;;
57439;Laerm;43282;47.188;8.896;2023-05-10T02:20:04;42.54;38.05;50.34;;
57439;Laerm;43282;47.188;8.896;2023-05-10T02:22:30;48.21;38.95;65.13;;
57439;Laerm;43282;47.188;8.896;2023-05-10T02:24:56;54.72;39.58;69.69;;
57439;Laerm;43282;47.188;8.896;2023-05-10T02:27:23;51.76;40.79;70.22;;
57439;Laerm;43282;47.188;8.896;2023-05-10T02:29:49;43.63;40.23;50.68;;
57439;Laerm;43282;47.188;8.896;2023-05-10T02:32:16;42.92;39.81;52.38;;
57439;Laerm;43282;47.188;8.896;2023-05-10T02:34:42;52.86;42.16;67.65;;
57439;Laerm;43282;47.188;8.896;2023-05-10T02:37:11;51.39;43.72;67.07;;
57439;Laerm;43282;47.188;8.896;2023-05-10T02:39:37;54.01;46.20;70.19;;
57439;Laerm;43282;47.188;8.896;2023-05-10T02:42:05;59.34;49.95;74.99;;
57439;Laerm;43282;47.188;8.896;2023-05-10T02:44:31;56.00;49.53;66.75;;
57439;Laerm;43282;47.188;8.896;2023-05-10T02:46:57;57.63;46.64;73.33;;
57439;Laerm;43282;47.188;8.896;2023-05-10T02:49:23;47.50;43.72;54.37;;
57439;Laerm;43282;47.188;8.896;2023-05-10T02:51:51;53.13;42.65;68.86;;
57439;Laerm;43282;47.188;8.896;2023-05-10T02:54:20;51.49;45.39;64.76;;
57439;Laerm;43282;47.188;8.896;2023-05-10T02:56:48;53.03;45.86;68.42;;
57439;Laerm;43282;47.188;8.896;2023-05-10T02:59:15;56.62;49.43;69.84;;
57439;Laerm;43282;47.188;8.896;2023-05-10T03:01:49;54.87;47.12;64.73;;
57439;Laerm;43282;47.188;8.896;2023-05-10T03:04:14;53.53;45.36;69.97;;
57439;Laerm;43282;47.188;8.896;2023-05-10T03:06:40;51.49;44.27;65.50;;
57439;Laerm;43282;47.188;8.896;2023-05-10T03:09:05;56.25;43.99;72.69;;
57439;Laerm;43282;47.188;8.896;2023-05-10T03:14:13;55.95;44.94;69.86;;
57439;Laerm;43282;47.188;8.896;2023-05-10T03:16:43;53.34;42.58;71.19;;
57439;Laerm;43282;47.188;8.896;2023-05-10T03:19:24;53.91;42.59;69.70;;
57439;Laerm;43282;47.188;8.896;2023-05-10T03:21:52;50.75;42.16;66.96;;
57439;Laerm;43282;47.188;8.896;2023-05-10T03:24:18;46.57;42.03;60.70;;
57439;Laerm;43282;47.188;8.896;2023-05-10T03:26:45;51.03;42.29;64.66;;
57439;Laerm;43282;47.188;8.896;2023-05-10T03:29:14;53.83;42.88;65.53;;
57439;Laerm;43282;47.188;8.896;2023-05-10T03:31:40;56.77;41.30;72.17;;
57439;Laerm;43282;47.188;8.896;2023-05-10T03:34:05;55.10;42.79;68.85;;
57439;Laerm;43282;47.188;8.896;2023-05-10T03:36:32;67.19;43.34;84.43;;
57439;Laerm;43282;47.188;8.896;2023-05-10T03:38:57;60.18;43.72;70.61;;
57439;Laerm;43282;47.188;8.896;2023-05-10T03:41:22;58.47;44.31;70.53;;
57439;Laerm;43282;47.188;8.896;2023-05-10T03:43:47;60.43;43.90;76.67;;
57439;Laerm;43282;47.188;8.896;2023-05-10T03:46:13;61.34;45.36;76.53;;
57439;Laerm;43282;47.188;8.896;2023-05-10T03:48:38;60.77;45.91;75.24;;
57439;Laerm;43282;47.188;8.896;2023-05-10T03:51:03;59.73;44.62;69.66;;
57439;Laerm;43282;47.188;8.896;2023-05-10T03:53:29;58.67;45.97;71.13;;
57439;Laerm;43282;47.188;8.896;2023-05-10T03:55:54;57.05;45.83;71.11;;
57439;Laerm;43282;47.188;8.896;2023-05-10T03:58:20;58.13;44.65;69.40;;
57439;Laerm;43282;47.188;8.896;2023-05-10T04:00:45;58.76;46.13;70.51;;
57439;Laerm;43282;47.188;8.896;2023-05-10T04:03:11;60.24;45.20;76.53;;
57439;Laerm;43282;47.188;8.896;2023-05-10T04:05:36;58.89;45.97;70.87;;
57439;Laerm;43282;47.188;8.896;2023-05-10T04:08:02;57.55;46.10;70.03;;
57439;Laerm;43282;47.188;8.896;2023-05-10T04:10:27;57.39;46.32;67.41;;
57439;Laerm;43282;47.188;8.896;2023-05-10T04:12:53;57.81;49.79;68.93;;
57439;Laerm;43282;47.188;8.896;2023-05-10T04:15:18;60.99;51.07;73.22;;
57439;Laerm;43282;47.188;8.896;2023-05-10T04:17:44;62.48;49.11;78.20;;
57439;Laerm;43282;47.188;8.896;2023-05-10T04:20:09;60.18;48.56;72.79;;
57439;Laerm;43282;47.188;8.896;2023-05-10T04:22:35;59.61;50.98;69.28;;
57439;Laerm;43282;47.188;8.896;2023-05-10T04:25:00;60.54;51.33;71.86;;
57439;Laerm;43282;47.188;8.896;2023-05-10T04:27:25;58.44;48.52;68.96;;
57439;Laerm;43282;47.188;8.896;2023-05-10T04:29:51;60.29;48.21;71.57;;
57439;Laerm;43282;47.188;8.896;2023-05-10T04:32:16;57.94;48.16;70.87;;
57439;Laerm;43282;47.188;8.896;2023-05-10T04:34:42;62.08;48.39;75.75;;
57439;Laerm;43282;47.188;8.896;2023-05-10T04:37:08;60.65;50.11;74.38;;
57439;Laerm;43282;47.188;8.896;2023-05-10T04:39:33;60.29;52.07;70.73;;
57439;Laerm;43282;47.188;8.896;2023-05-10T04:41:58;61.24;51.64;69.26;;
57439;Laerm;43282;47.188;8.896;2023-05-10T04:44:24;61.82;50.19;72.70;;
57439;Laerm;43282;47.188;8.896;2023-05-10T04:46:49;61.08;49.93;72.14;;
57439;Laerm;43282;47.188;8.896;2023-05-10T04:49:14;61.32;52.21;74.32;;
57439;Laerm;43282;47.188;8.896;2023-05-10T04:51:40;61.80;48.58;74.26;;
57439;Laerm;43282;47.188;8.896;2023-05-10T04:54:05;59.24;48.77;70.04;;
57439;Laerm;43282;47.188;8.896;2023-05-10T04:56:30;59.84;49.83;73.91;;
57439;Laerm;43282;47.188;8.896;2023-05-10T04:58:56;58.71;49.80;68.14;;
57439;Laerm;43282;47.188;8.896;2023-05-10T05:01:21;61.46;49.52;74.73;;
57439;Laerm;43282;47.188;8.896;2023-05-10T05:03:48;62.25;48.40;76.86;;
57439;Laerm;43282;47.188;8.896;2023-05-10T05:06:13;59.73;46.40;72.90;;
57439;Laerm;43282;47.188;8.896;2023-05-10T05:08:38;65.23;57.24;73.26;;
57439;Laerm;43282;47.188;8.896;2023-05-10T05:11:04;65.85;54.80;77.63;;
57439;Laerm;43282;47.188;8.896;2023-05-10T05:13:29;64.97;54.26;73.96;;
57439;Laerm;43282;47.188;8.896;2023-05-10T05:15:55;66.87;58.25;78.17;;
57439;Laerm;43282;47.188;8.896;2023-05-10T05:18:20;65.12;52.06;81.28;;
57439;Laerm;43282;47.188;8.896;2023-05-10T05:20:45;62.47;49.19;75.41;;
57439;Laerm;43282;47.188;8.896;2023-05-10T05:23:11;64.75;50.95;76.60;;
57439;Laerm;43282;47.188;8.896;2023-05-10T05:25:36;63.32;49.08;74.50;;
57439;Laerm;43282;47.188;8.896;2023-05-10T05:28:01;64.34;51.03;74.33;;
57439;Laerm;43282;47.188;8.896;2023-05-10T05:30:27;62.85;48.99;76.54;;
57439;Laerm;43282;47.188;8.896;2023-05-10T05:32:52;64.44;50.34;78.05;;
57439;Laerm;43282;47.188;8.896;2023-05-10T05:35:17;63.55;51.39;74.04;;
57439;Laerm;43282;47.188;8.896;2023-05-10T05:37:43;61.79;49.92;71.54;;
57439;Laerm;43282;47.188;8.896;2023-05-10T05:40:11;60.91;50.46;70.61;;
57439;Laerm;43282;47.188;8.896;2023-05-10T05:42:37;62.50;50.53;77.75;;
57439;Laerm;43282;47.188;8.896;2023-05-10T05:45:03;60.86;50.59;70.72;;
57439;Laerm;43282;47.188;8.896;2023-05-10T05:47:29;63.16;50.29;73.72;;
57439;Laerm;43282;47.188;8.896;2023-05-10T05:49:54;65.64;51.33;76.72;;
57439;Laerm;43282;47.188;8.896;2023-05-10T05:52:20;61.60;48.28;76.01;;
57439;Laerm;43282;47.188;8.896;2023-05-10T05:54:46;61.46;48.87;72.14;;
57439;Laerm;43282;47.188;8.896;2023-05-10T05:57:11;60.82;48.43;70.07;;
57439;Laerm;43282;47.188;8.896;2023-05-10T05:59:37;60.87;46.94;75.23;;
57439;Laerm;43282;47.188;8.896;2023-05-10T06:02:07;59.26;47.48;71.67;;
57439;Laerm;43282;47.188;8.896;2023-05-10T06:04:32;60.00;46.47;73.59;;
57439;Laerm;43282;47.188;8.896;2023-05-10T06:06:57;62.11;49.20;75.57;;
57439;Laerm;43282;47.188;8.896;2023-05-10T06:09:23;61.43;46.33;73.06;;
57439;Laerm;43282;47.188;8.896;2023-05-10T06:11:49;59.52;46.59;71.08;;
57439;Laerm;43282;47.188;8.896;2023-05-10T06:14:14;60.98;46.10;73.62;;
57439;Laerm;43282;47.188;8.896;2023-05-10T06:16:40;62.78;46.78;76.25;;
57439;Laerm;43282;47.188;8.896;2023-05-10T06:19:05;62.40;45.57;77.81;;
57439;Laerm;43282;47.188;8.896;2023-05-10T06:21:31;64.67;47.46;76.48;;
57439;Laerm;43282;47.188;8.896;2023-05-10T06:23:56;61.63;45.54;76.99;;
57439;Laerm;43282;47.188;8.896;2023-05-10T06:26:21;62.23;46.71;75.06;;
57439;Laerm;43282;47.188;8.896;2023-05-10T06:28:47;61.55;45.51;73.53;;
57439;Laerm;43282;47.188;8.896;2023-05-10T06:31:12;59.14;46.45;72.46;;
57439;Laerm;43282;47.188;8.896;2023-05-10T06:33:37;61.86;46.35;75.78;;
57439;Laerm;43282;47.188;8.896;2023-05-10T06:36:02;63.56;46.15;76.87;;
57439;Laerm;43282;47.188;8.896;2023-05-10T06:38:28;61.93;46.87;73.87;;
57439;Laerm;43282;47.188;8.896;2023-05-10T06:40:53;62.38;46.65;73.23;;
57439;Laerm;43282;47.188;8.896;2023-05-10T06:43:19;58.01;46.48;69.58;;
57439;Laerm;43282;47.188;8.896;2023-05-10T06:45:44;60.84;46.95;74.29;;
57439;Laerm;43282;47.188;8.896;2023-05-10T06:48:10;60.33;45.94;70.51;;
57439;Laerm;43282;47.188;8.896;2023-05-10T06:50:35;61.90;47.26;76.93;;
57439;Laerm;43282;47.188;8.896;2023-05-10T06:53:01;61.22;49.04;73.68;;
57439;Laerm;43282;47.188;8.896;2023-05-10T06:55:29;64.00;52.41;76.72;;
57439;Laerm;43282;47.188;8.896;2023-05-10T06:57:54;60.04;48.68;69.27;;
57439;Laerm;43282;47.188;8.896;2023-05-10T07:00:20;63.10;53.64;75.91;;
57439;Laerm;43282;47.188;8.896;2023-05-10T07:02:45;60.57;52.34;68.12;;
57439;Laerm;43282;47.188;8.896;2023-05-10T07:05:11;61.35;50.58;70.54;;
57439;Laerm;43282;47.188;8.896;2023-05-10T07:07:37;62.54;48.48;76.01;;
57439;Laerm;43282;47.188;8.896;2023-05-10T07:10:02;64.21;49.67;76.06;;
57439;Laerm;43282;47.188;8.896;2023-05-10T07:12:42;63.27;51.26;77.53;;
57439;Laerm;43282;47.188;8.896;2023-05-10T07:15:15;61.76;49.08;71.64;;
57439;Laerm;43282;47.188;8.896;2023-05-10T07:17:40;59.86;47.50;70.87;;
57439;Laerm;43282;47.188;8.896;2023-05-10T07:20:06;61.02;47.76;74.59;;
57439;Laerm;43282;47.188;8.896;2023-05-10T07:22:31;59.99;48.94;71.96;;
57439;Laerm;43282;47.188;8.896;2023-05-10T07:24:57;61.15;48.32;73.05;;
57439;Laerm;43282;47.188;8.896;2023-05-10T07:27:22;60.05;47.14;70.48;;
57439;Laerm;43282;47.188;8.896;2023-05-10T07:29:47;60.44;45.63;74.50;;
57439;Laerm;43282;47.188;8.896;2023-05-10T07:32:13;60.26;47.06;76.17;;
57439;Laerm;43282;47.188;8.896;2023-05-10T07:34:38;62.22;49.36;72.16;;
57439;Laerm;43282;47.188;8.896;2023-05-10T07:37:06;62.81;50.35;75.43;;
57439;Laerm;43282;47.188;8.896;2023-05-10T07:39:32;63.76;48.26;76.27;;
57439;Laerm;43282;47.188;8.896;2023-05-10T07:41:57;63.13;44.90;79.09;;
57439;Laerm;43282;47.188;8.896;2023-05-10T07:44:23;61.65;45.63;75.25;;
57439;Laerm;43282;47.188;8.896;2023-05-10T07:46:48;63.45;45.42;76.45;;
57439;Laerm;43282;47.188;8.896;2023-05-10T07:49:14;62.46;45.30;73.01;;
57439;Laerm;43282;47.188;8.896;2023-05-10T07:51:39;63.32;45.86;77.48;;
57439;Laerm;43282;47.188;8.896;2023-05-10T07:54:04;60.94;46.73;71.62;;
57439;Laerm;43282;47.188;8.896;2023-05-10T07:56:31;60.06;48.99;69.44;;
57439;Laerm;43282;47.188;8.896;2023-05-10T07:58:56;63.46;46.97;78.27;;
57439;Laerm;43282;47.188;8.896;2023-05-10T08:01:22;67.32;48.20;82.63;;
57439;Laerm;43282;47.188;8.896;2023-05-10T08:03:48;62.66;46.30;74.10;;
57439;Laerm;43282;47.188;8.896;2023-05-10T08:06:14;59.89;43.72;72.69;;
57439;Laerm;43282;47.188;8.896;2023-05-10T08:08:40;62.94;45.80;76.85;;
57439;Laerm;43282;47.188;8.896;2023-05-10T08:11:05;61.92;45.23;75.18;;
57439;Laerm;43282;47.188;8.896;2023-05-10T08:13:42;59.96;44.87;68.73;;
57439;Laerm;43282;47.188;8.896;2023-05-10T08:16:07;62.87;44.66;76.81;;
57439;Laerm;43282;47.188;8.896;2023-05-10T08:18:32;60.41;44.62;70.94;;
57439;Laerm;43282;47.188;8.896;2023-05-10T08:20:58;62.65;44.47;79.39;;
57439;Laerm;43282;47.188;8.896;2023-05-10T08:23:23;60.41;44.90;70.98;;
57439;Laerm;43282;47.188;8.896;2023-05-10T08:25:48;61.74;45.23;71.73;;
57439;Laerm;43282;47.188;8.896;2023-05-10T08:28:14;72.85;44.51;95.07;;
57439;Laerm;43282;47.188;8.896;2023-05-10T08:30:40;61.30;47.70;75.27;;
57439;Laerm;43282;47.188;8.896;2023-05-10T08:33:05;60.15;47.14;69.68;;
57439;Laerm;43282;47.188;8.896;2023-05-10T08:35:30;63.08;49.74;74.93;;
57439;Laerm;43282;47.188;8.896;2023-05-10T08:37:56;63.52;54.57;73.92;;
57439;Laerm;43282;47.188;8.896;2023-05-10T08:40:21;66.31;56.95;78.18;;
57439;Laerm;43282;47.188;8.896;2023-05-10T08:42:56;63.97;55.30;73.20;;
57439;Laerm;43282;47.188;8.896;2023-05-10T08:45:23;64.96;51.73;78.79;;
57439;Laerm;43282;47.188;8.896;2023-05-10T08:47:49;65.33;52.46;77.64;;
57439;Laerm;43282;47.188;8.896;2023-05-10T08:50:17;61.75;50.44;71.17;;
57439;Laerm;43282;47.188;8.896;2023-05-10T08:52:45;63.29;52.27;73.20;;
57439;Laerm;43282;47.188;8.896;2023-05-10T08:55:11;62.67;49.20;73.84;;
57439;Laerm;43282;47.188;8.896;2023-05-10T08:57:36;63.44;48.02;77.70;;
57439;Laerm;43282;47.188;8.896;2023-05-10T09:00:05;62.09;47.55;71.49;;
57439;Laerm;43282;47.188;8.896;2023-05-10T09:02:31;63.22;48.57;77.83;;
57439;Laerm;43282;47.188;8.896;2023-05-10T09:04:56;60.83;47.38;70.58;;
57439;Laerm;43282;47.188;8.896;2023-05-10T09:07:21;60.64;48.26;71.38;;
57439;Laerm;43282;47.188;8.896;2023-05-10T09:09:47;61.72;47.48;75.24;;
57439;Laerm;43282;47.188;8.896;2023-05-10T09:12:13;62.96;49.38;74.42;;
57439;Laerm;43282;47.188;8.896;2023-05-10T09:14:40;62.70;50.96;73.10;;
57439;Laerm;43282;47.188;8.896;2023-05-10T09:17:06;60.60;51.13;70.30;;
57439;Laerm;43282;47.188;8.896;2023-05-10T09:19:32;62.38;51.75;74.27;;
57439;Laerm;43282;47.188;8.896;2023-05-10T09:21:57;63.81;49.28;76.72;;
57439;Laerm;43282;47.188;8.896;2023-05-10T09:24:25;64.30;49.66;78.34;;
57439;Laerm;43282;47.188;8.896;2023-05-10T09:26:52;60.43;50.61;68.70;;
57439;Laerm;43282;47.188;8.896;2023-05-10T09:29:17;58.67;48.39;69.68;;
57439;Laerm;43282;47.188;8.896;2023-05-10T09:31:43;61.13;50.77;72.44;;
57439;Laerm;43282;47.188;8.896;2023-05-10T09:34:32;62.99;49.95;76.82;;
57439;Laerm;43282;47.188;8.896;2023-05-10T09:36:58;62.32;47.72;75.81;;
57439;Laerm;43282;47.188;8.896;2023-05-10T09:39:43;60.26;46.07;69.93;;
57439;Laerm;43282;47.188;8.896;2023-05-10T09:42:09;61.17;45.86;71.61;;
57439;Laerm;43282;47.188;8.896;2023-05-10T09:44:35;63.01;50.74;73.90;;
57439;Laerm;43282;47.188;8.896;2023-05-10T09:47:01;63.67;49.28;77.11;;
57439;Laerm;43282;47.188;8.896;2023-05-10T09:49:26;63.63;49.79;76.43;;
57439;Laerm;43282;47.188;8.896;2023-05-10T09:52:05;65.16;48.42;83.48;;
57439;Laerm;43282;47.188;8.896;2023-05-10T09:54:30;62.13;44.65;73.06;;
57439;Laerm;43282;47.188;8.896;2023-05-10T09:56:56;61.49;48.00;77.67;;
57439;Laerm;43282;47.188;8.896;2023-05-10T09:59:21;60.44;46.20;71.60;;
57439;Laerm;43282;47.188;8.896;2023-05-10T10:01:50;60.09;45.86;72.25;;
57439;Laerm;43282;47.188;8.896;2023-05-10T10:04:16;61.52;46.62;75.27;;
57439;Laerm;43282;47.188;8.896;2023-05-10T10:06:42;64.15;48.73;73.09;;
57439;Laerm;43282;47.188;8.896;2023-05-10T10:09:07;64.35;49.08;73.42;;
57439;Laerm;43282;47.188;8.896;2023-05-10T10:11:36;63.30;47.46;77.89;;
57439;Laerm;43282;47.188;8.896;2023-05-10T10:14:02;61.39;48.05;72.07;;
57439;Laerm;43282;47.188;8.896;2023-05-10T10:16:28;61.63;47.46;75.59;;
57439;Laerm;43282;47.188;8.896;2023-05-10T10:18:54;60.83;45.11;71.94;;
57439;Laerm;43282;47.188;8.896;2023-05-10T10:21:19;59.16;45.14;72.95;;
57439;Laerm;43282;47.188;8.896;2023-05-10T10:23:45;58.85;45.45;72.79;;
57439;Laerm;43282;47.188;8.896;2023-05-10T10:26:11;58.32;45.72;72.58;;
57439;Laerm;43282;47.188;8.896;2023-05-10T10:28:51;59.12;48.64;71.46;;
57439;Laerm;43282;47.188;8.896;2023-05-10T10:31:26;61.10;47.32;73.28;;
57439;Laerm;43282;47.188;8.896;2023-05-10T10:33:57;58.14;47.41;69.47;;
57439;Laerm;43282;47.188;8.896;2023-05-10T10:36:24;56.66;46.76;68.16;;
57439;Laerm;43282;47.188;8.896;2023-05-10T10:49:24;61.29;48.91;74.88;;
57439;Laerm;43282;47.188;8.896;2023-05-10T10:54:34;63.37;49.02;81.03;;
57439;Laerm;43282;47.188;8.896;2023-05-10T10:57:13;65.02;50.58;78.25;;
57439;Laerm;43282;47.188;8.896;2023-05-10T10:59:42;64.07;48.76;77.44;;
57439;Laerm;43282;47.188;8.896;2023-05-10T11:02:23;64.00;49.51;76.16;;
57439;Laerm;43282;47.188;8.896;2023-05-10T11:04:55;61.54;48.63;71.64;;
57439;Laerm;43282;47.188;8.896;2023-05-10T11:07:21;60.69;48.37;70.39;;
57439;Laerm;43282;47.188;8.896;2023-05-10T11:09:46;62.82;48.52;78.00;;
57439;Laerm;43282;47.188;8.896;2023-05-10T11:12:12;61.90;46.13;72.73;;
57439;Laerm;43282;47.188;8.896;2023-05-10T11:14:37;63.72;45.11;80.79;;
57439;Laerm;43282;47.188;8.896;2023-05-10T11:17:16;59.65;47.12;70.37;;
57439;Laerm;43282;47.188;8.896;2023-05-10T11:20:02;60.46;51.22;72.11;;
57439;Laerm;43282;47.188;8.896;2023-05-10T11:22:27;64.75;49.85;78.25;;
57439;Laerm;43282;47.188;8.896;2023-05-10T11:24:56;61.66;47.67;73.12;;
57439;Laerm;43282;47.188;8.896;2023-05-10T11:27:23;65.18;49.46;78.35;;
57439;Laerm;43282;47.188;8.896;2023-05-10T11:29:51;63.87;48.98;77.05;;
57439;Laerm;43282;47.188;8.896;2023-05-10T11:32:16;63.87;50.44;78.66;;
57439;Laerm;43282;47.188;8.896;2023-05-10T11:34:42;61.68;46.71;78.07;;
57439;Laerm;43282;47.188;8.896;2023-05-10T11:37:07;63.66;48.37;77.97;;
57439;Laerm;43282;47.188;8.896;2023-05-10T11:39:32;62.21;48.87;77.46;;
57439;Laerm;43282;47.188;8.896;2023-05-10T11:41:58;62.33;50.09;72.37;;
57439;Laerm;43282;47.188;8.896;2023-05-10T11:44:31;60.73;49.63;75.65;;
57439;Laerm;43282;47.188;8.896;2023-05-10T11:46:58;66.05;46.50;78.47;;
57439;Laerm;43282;47.188;8.896;2023-05-10T11:49:23;62.18;44.87;75.88;;
57439;Laerm;43282;47.188;8.896;2023-05-10T11:51:51;59.62;43.24;73.76;;
57439;Laerm;43282;47.188;8.896;2023-05-10T11:54:16;60.97;43.94;71.54;;
57439;Laerm;43282;47.188;8.896;2023-05-10T11:56:41;62.37;46.59;73.68;;
57439;Laerm;43282;47.188;8.896;2023-05-10T11:59:07;60.56;45.77;72.51;;
57439;Laerm;43282;47.188;8.896;2023-05-10T12:01:33;62.50;44.47;78.70;;
57439;Laerm;43282;47.188;8.896;2023-05-10T12:03:58;60.36;46.05;75.23;;
57439;Laerm;43282;47.188;8.896;2023-05-10T12:06:36;61.00;46.64;71.93;;
57439;Laerm;43282;47.188;8.896;2023-05-10T12:09:05;62.52;54.87;74.97;;
57439;Laerm;43282;47.188;8.896;2023-05-10T12:11:31;61.55;52.44;72.20;;
57439;Laerm;43282;47.188;8.896;2023-05-10T12:13:56;59.47;52.47;69.51;;
57439;Laerm;43282;47.188;8.896;2023-05-10T12:16:23;61.93;54.04;70.99;;
57439;Laerm;43282;47.188;8.896;2023-05-10T12:18:52;61.03;48.10;70.84;;
57439;Laerm;43282;47.188;8.896;2023-05-10T12:21:18;57.29;47.26;66.49;;
57439;Laerm;43282;47.188;8.896;2023-05-10T12:23:45;63.77;52.29;80.67;;
57439;Laerm;43282;47.188;8.896;2023-05-10T12:26:10;59.20;50.78;70.32;;
57439;Laerm;43282;47.188;8.896;2023-05-10T12:28:36;61.01;49.32;73.74;;
57439;Laerm;43282;47.188;8.896;2023-05-10T12:31:01;58.67;47.36;68.91;;
57439;Laerm;43282;47.188;8.896;2023-05-10T12:33:27;66.23;49.03;82.54;;
57439;Laerm;43282;47.188;8.896;2023-05-10T12:36:00;61.20;48.25;76.22;;
57439;Laerm;43282;47.188;8.896;2023-05-10T12:38:29;67.54;48.02;95.03;;
57439;Laerm;43282;47.188;8.896;2023-05-10T12:40:57;60.34;50.13;74.40;;
57439;Laerm;43282;47.188;8.896;2023-05-10T12:43:22;61.41;50.03;80.45;;
57439;Laerm;43282;47.188;8.896;2023-05-10T12:45:48;60.12;47.83;73.58;;
57439;Laerm;43282;47.188;8.896;2023-05-10T12:48:14;59.42;48.02;72.40;;
57439;Laerm;43282;47.188;8.896;2023-05-10T12:50:39;60.31;49.72;69.69;;
57439;Laerm;43282;47.188;8.896;2023-05-10T12:53:05;59.35;48.28;66.72;;
57439;Laerm;43282;47.188;8.896;2023-05-10T12:55:30;58.63;47.04;68.22;;
57439;Laerm;43282;47.188;8.896;2023-05-10T12:57:55;58.81;49.24;68.44;;
57439;Laerm;43282;47.188;8.896;2023-05-10T13:00:21;59.21;47.38;69.74;;
57439;Laerm;43282;47.188;8.896;2023-05-10T13:02:46;62.53;50.78;75.34;;
57439;Laerm;43282;47.188;8.896;2023-05-10T13:05:11;58.18;48.94;67.80;;
57439;Laerm;43282;47.188;8.896;2023-05-10T13:07:38;57.05;46.50;66.56;;
57439;Laerm;43282;47.188;8.896;2023-05-10T13:10:03;58.52;49.81;66.61;;
57439;Laerm;43282;47.188;8.896;2023-05-10T13:12:43;56.51;48.16;65.56;;
57439;Laerm;43282;47.188;8.896;2023-05-10T13:15:08;58.22;47.79;72.35;;
57439;Laerm;43282;47.188;8.896;2023-05-10T13:17:34;60.10;52.49;69.29;;
57439;Laerm;43282;47.188;8.896;2023-05-10T13:19:59;57.95;46.50;67.06;;
57439;Laerm;43282;47.188;8.896;2023-05-10T13:22:24;63.53;49.82;80.18;;
57439;Laerm;43282;47.188;8.896;2023-05-10T13:24:50;61.97;46.30;77.05;;
57439;Laerm;43282;47.188;8.896;2023-05-10T13:27:15;59.29;48.54;69.94;;
57439;Laerm;43282;47.188;8.896;2023-05-10T13:29:41;59.57;46.18;68.16;;
57439;Laerm;43282;47.188;8.896;2023-05-10T13:32:06;61.36;45.60;72.78;;
57439;Laerm;43282;47.188;8.896;2023-05-10T13:34:31;62.76;47.12;74.99;;
57439;Laerm;43282;47.188;8.896;2023-05-10T13:36:57;62.27;46.95;72.64;;
57439;Laerm;43282;47.188;8.896;2023-05-10T13:39:23;61.46;46.61;75.65;;
57439;Laerm;43282;47.188;8.896;2023-05-10T13:41:48;61.46;46.89;72.67;;
57439;Laerm;43282;47.188;8.896;2023-05-10T13:44:14;62.82;46.35;73.19;;
57439;Laerm;43282;47.188;8.896;2023-05-10T13:46:40;60.11;47.24;73.17;;
57439;Laerm;43282;47.188;8.896;2023-05-10T13:49:05;61.98;50.80;72.93;;
57439;Laerm;43282;47.188;8.896;2023-05-10T13:51:30;63.15;48.83;73.32;;
57439;Laerm;43282;47.188;8.896;2023-05-10T13:53:59;62.28;50.36;75.51;;
57439;Laerm;43282;47.188;8.896;2023-05-10T13:56:24;61.29;47.40;73.70;;
57439;Laerm;43282;47.188;8.896;2023-05-10T13:58:49;61.04;48.05;70.92;;
57439;Laerm;43282;47.188;8.896;2023-05-10T14:01:15;59.49;46.95;70.19;;
57439;Laerm;43282;47.188;8.896;2023-05-10T14:03:40;64.07;49.36;77.28;;
57439;Laerm;43282;47.188;8.896;2023-05-10T14:06:05;59.82;49.62;69.19;;
57439;Laerm;43282;47.188;8.896;2023-05-10T14:08:32;61.73;48.69;75.60;;
57439;Laerm;43282;47.188;8.896;2023-05-10T14:10:57;61.74;50.35;73.55;;
57439;Laerm;43282;47.188;8.896;2023-05-10T14:13:23;63.69;49.41;78.13;;
57439;Laerm;43282;47.188;8.896;2023-05-10T14:15:48;62.43;52.02;73.39;;
57439;Laerm;43282;47.188;8.896;2023-05-10T14:18:13;62.35;51.94;70.19;;